Seneca, Oregon
Current Conditions -  °F | °C
As of 12:55 PM on Friday 31 Oct 2014 (Local Time) from KGCD Reporting Station
Overcast Overcast  
Wind Chill: 62°   Ceiling: 8000
Heat Index: 62°   Visibility: 10mi
Dew Point: 35°   Wind: 14mph
Humidity: 37%   Direction: 240°WSW
Pressure: 29.79"   Gusts: 23mph
Location:  44.13°N, 118.97°W
Report Text: KGCD 311955Z AUTO 24012G20KT 10SM SCT070 OVC080 17/02 A2979 RMK AO2 T01660017
Loading
Personal Weather Stations






























Interactive Weather Map
Tropical Storm Tracking
New forecast layout! Learn more

10-Day Weather Forecast

Advertisements
Track Severe Weather on mobile